Time;durP1;ratioP1;P1;durP2;ratioP2;P2;SDS_P1;SDS_P2;PMS_P1;PMS_P2;Temp;Humidity;BMP_temperature;BMP_pressure;BME280_temperature;BME280_humidity;BME280_pressure;Samples;Min_cycle;Max_cycle;Signal;HPM_P1;HPM_P2
2022/03/26 00:01:23;;;;;;;35.33;17.90;;;;;;;2.01;66.22;98415.25;5025741;28;20060;-66
2022/03/26 00:03:50;;;;;;;42.58;19.17;;;;;;;2.14;65.60;98415.53;5021617;28;20071;-66
2022/03/26 00:06:16;;;;;;;35.38;17.95;;;;;;;2.07;65.79;98411.91;5028454;28;20041;-65
2022/03/26 00:08:43;;;;;;;37.45;18.67;;;;;;;2.06;66.01;98411.06;5029227;28;20508;-66
2022/03/26 00:11:09;;;;;;;42.15;18.40;;;;;;;1.98;66.52;98408.41;5026108;28;20053;-66
2022/03/26 00:13:36;;;;;;;40.80;20.48;;;;;;;1.98;66.29;98404.91;5029048;28;20042;-65
2022/03/26 00:16:03;;;;;;;37.45;19.60;;;;;;;1.98;65.84;98407.59;5027628;28;20103;-64
2022/03/26 00:18:30;;;;;;;36.63;17.67;;;;;;;1.93;66.27;98408.09;5026366;28;20056;-65
2022/03/26 00:20:56;;;;;;;38.38;20.02;;;;;;;1.88;67.11;98407.78;5034354;28;20053;-65
2022/03/26 00:23:23;;;;;;;38.17;18.85;;;;;;;1.85;66.77;98408.94;5027893;28;20049;-65
2022/03/26 00:25:49;;;;;;;38.17;19.42;;;;;;;1.79;66.87;98407.78;5027760;28;20539;-66
2022/03/26 00:28:16;;;;;;;36.72;17.98;;;;;;;1.77;66.81;98398.28;5027665;28;20045;-65
2022/03/26 00:30:43;;;;;;;33.97;17.75;;;;;;;1.85;66.79;98400.09;5023357;28;20059;-64
2022/03/26 00:33:09;;;;;;;42.33;21.63;;;;;;;1.96;66.14;98402.41;5027856;28;20167;-66
2022/03/26 00:35:36;;;;;;;38.80;18.13;;;;;;;1.92;66.34;98406.44;5027983;28;20099;-66
2022/03/26 00:38:02;;;;;;;34.90;16.98;;;;;;;2.03;66.15;98406.06;5028068;28;20060;-66
2022/03/26 00:40:29;;;;;;;40.78;18.63;;;;;;;1.95;66.35;98406.91;5028211;28;20579;-66
2022/03/26 00:42:56;;;;;;;41.45;21.23;;;;;;;1.74;66.99;98409.28;5027925;28;20571;-66
2022/03/26 00:45:24;;;;;;;40.42;19.10;;;;;;;1.66;67.30;98416.31;5028033;28;20053;-66
2022/03/26 00:47:50;;;;;;;40.05;18.65;;;;;;;1.80;66.48;98419.28;5027316;28;20052;-66
2022/03/26 00:50:17;;;;;;;40.25;17.42;;;;;;;1.85;66.49;98421.47;5033095;28;20049;-64
2022/03/26 00:52:44;;;;;;;37.03;18.10;;;;;;;1.44;68.13;98415.16;5031498;28;20670;-64
2022/03/26 00:55:10;;;;;;;39.05;19.63;;;;;;;1.35;68.59;98414.31;5027008;28;20053;-66
2022/03/26 00:57:37;;;;;;;33.20;17.13;;;;;;;1.41;68.45;98420.84;5027161;28;20045;-65
2022/03/26 01:00:06;;;;;;;35.58;18.85;;;;;;;1.22;68.84;98414.00;5027028;28;20638;-65
2022/03/26 01:02:33;;;;;;;40.63;20.75;;;;;;;1.25;69.24;98406.47;5027677;28;20076;-66
2022/03/26 01:05:00;;;;;;;32.75;17.83;;;;;;;1.26;69.18;98413.47;5022014;28;20045;-64
2022/03/26 01:07:27;;;;;;;39.85;18.88;;;;;;;1.33;68.79;98411.00;5026840;28;20037;-66
2022/03/26 01:09:54;;;;;;;34.53;16.90;;;;;;;1.37;68.26;98411.50;5027248;28;20100;-65
2022/03/26 01:12:21;;;;;;;37.20;19.00;;;;;;;1.31;68.40;98413.00;5026903;28;20038;-66
2022/03/26 01:14:49;;;;;;;35.95;16.83;;;;;;;1.17;68.69;98412.66;5026728;28;20076;-64
2022/03/26 01:17:15;;;;;;;40.17;19.13;;;;;;;1.31;68.74;98413.00;5025051;28;20049;-66
2022/03/26 01:19:43;;;;;;;36.30;17.70;;;;;;;1.25;69.06;98411.81;5027765;28;20050;-65
2022/03/26 01:22:10;;;;;;;37.42;19.02;;;;;;;1.13;69.18;98407.81;5027150;28;20041;-65
2022/03/26 01:24:37;;;;;;;34.45;16.75;;;;;;;1.19;68.80;98411.66;5027142;28;20080;-66
2022/03/26 01:27:06;;;;;;;35.25;18.23;;;;;;;1.15;69.33;98411.97;5026737;28;20041;-65
2022/03/26 01:29:33;;;;;;;40.38;19.08;;;;;;;1.03;69.65;98408.78;5024986;28;20037;-64
2022/03/26 01:32:00;;;;;;;34.20;17.75;;;;;;;0.99;69.76;98409.31;5027211;28;20052;-65
2022/03/26 01:34:27;;;;;;;36.15;18.35;;;;;;;1.00;69.65;98402.97;5028057;28;20417;-65
2022/03/26 01:36:54;;;;;;;39.92;19.90;;;;;;;0.85;70.42;98413.44;5027462;28;20048;-65
2022/03/26 01:39:22;;;;;;;36.53;18.52;;;;;;;0.95;70.17;98410.63;5027108;28;20489;-65
2022/03/26 01:41:48;;;;;;;35.35;17.55;;;;;;;1.10;69.74;98408.97;5027301;28;20037;-65
2022/03/26 01:44:15;;;;;;;37.20;18.75;;;;;;;1.07;69.42;98401.28;5027990;28;20053;-64
2022/03/26 01:46:53;;;;;;;41.35;19.02;;;;;;;1.02;69.66;98412.47;5026279;28;20547;-66
2022/03/26 01:49:20;;;;;;;39.65;19.92;;;;;;;0.98;70.05;98400.47;5033689;28;20673;-66
2022/03/26 01:51:48;;;;;;;34.45;16.67;;;;;;;0.96;69.77;98398.97;5026089;28;20033;-64
2022/03/26 01:54:16;;;;;;;37.28;16.55;;;;;;;0.95;70.01;98399.97;5027264;28;20045;-65
2022/03/26 01:56:43;;;;;;;34.80;17.42;;;;;;;0.90;69.68;98401.28;5026856;28;20049;-65
2022/03/26 01:59:10;;;;;;;40.42;18.52;;;;;;;0.83;70.39;98400.28;5026060;28;20087;-65
2022/03/26 02:01:38;;;;;;;40.60;20.55;;;;;;;0.81;70.29;98401.44;5025586;28;20064;-65
2022/03/26 02:04:06;;;;;;;37.80;18.73;;;;;;;0.76;70.86;98405.41;5027951;28;20500;-64
2022/03/26 02:06:34;;;;;;;34.95;18.80;;;;;;;0.70;70.90;98399.91;5026232;28;20041;-66
2022/03/26 02:09:05;;;;;;;37.22;17.50;;;;;;;0.61;70.84;98396.38;5025820;28;20045;-66
2022/03/26 02:11:33;;;;;;;35.45;18.13;;;;;;;0.55;71.65;98403.19;5026006;28;20050;-65
2022/03/26 02:14:01;;;;;;;36.03;19.30;;;;;;;0.70;70.61;98408.72;5026781;28;20754;-65
2022/03/26 02:16:28;;;;;;;41.75;18.80;;;;;;;0.68;70.96;98405.41;5024941;28;20045;-65
2022/03/26 02:18:55;;;;;;;40.58;19.85;;;;;;;0.65;71.13;98397.72;5024303;28;20042;-66
2022/03/26 02:21:22;;;;;;;34.28;16.83;;;;;;;0.73;70.64;98402.22;5025148;28;20065;-66
2022/03/26 02:23:50;;;;;;;38.35;19.67;;;;;;;0.67;70.69;98397.56;5041533;28;20037;-66
2022/03/26 02:26:25;;;;;;;43.20;20.58;;;;;;;0.71;70.61;98389.09;5028154;28;20045;-66
2022/03/26 02:28:57;;;;;;;37.95;18.02;;;;;;;0.72;70.74;98393.41;5026039;28;20048;-66
2022/03/26 02:31:26;;;;;;;40.08;19.05;;;;;;;0.66;70.82;98387.91;5025356;28;20057;-65
2022/03/26 02:33:54;;;;;;;31.33;16.17;;;;;;;0.62;70.73;98390.03;5028148;28;20037;-67
2022/03/26 02:36:20;;;;;;;37.83;20.85;;;;;;;0.62;71.21;98382.88;5037856;28;20111;-66
2022/03/26 02:38:47;;;;;;;40.20;17.98;;;;;;;0.57;71.12;98392.38;5008070;28;20203;-66
2022/03/26 02:41:13;;;;;;;38.70;19.52;;;;;;;0.52;70.99;98384.88;5022305;28;20053;-66
2022/03/26 02:43:40;;;;;;;38.58;17.30;;;;;;;0.33;71.63;98392.13;5025828;28;20041;-65
2022/03/26 02:46:06;;;;;;;33.47;17.45;;;;;;;0.38;71.49;98386.31;5024841;28;20076;-66
2022/03/26 02:48:35;;;;;;;41.63;19.83;;;;;;;0.38;71.79;98389.81;5025064;28;20124;-66
2022/03/26 02:51:02;;;;;;;34.72;17.23;;;;;;;0.42;71.66;98386.81;5025304;28;20049;-66
2022/03/26 02:53:28;;;;;;;38.00;19.17;;;;;;;0.44;71.72;98387.50;5032252;28;20040;-65
2022/03/26 02:55:55;;;;;;;34.50;17.80;;;;;;;0.40;71.52;98389.63;5024585;28;20251;-66
2022/03/26 02:58:21;;;;;;;34.35;16.60;;;;;;;0.32;71.75;98384.28;5025429;28;20589;-65
2022/03/26 03:00:48;;;;;;;36.53;17.52;;;;;;;0.29;71.65;98380.09;5025725;28;20049;-66
2022/03/26 03:03:15;;;;;;;31.30;16.10;;;;;;;0.30;71.64;98387.13;5029444;28;20047;-66
2022/03/26 03:05:42;;;;;;;38.97;18.02;;;;;;;0.26;71.91;98391.13;5025537;28;20073;-65
2022/03/26 03:08:09;;;;;;;35.53;17.40;;;;;;;0.17;71.94;98384.91;5023468;28;20665;-66
2022/03/26 03:10:36;;;;;;;37.90;16.58;;;;;;;0.19;71.93;98398.88;5025158;28;20037;-64
2022/03/26 03:13:02;;;;;;;43.00;19.58;;;;;;;0.14;72.35;98387.88;5042827;28;20144;-66
2022/03/26 03:15:29;;;;;;;34.13;17.60;;;;;;;0.14;72.17;98387.06;5026847;28;20568;-66
2022/03/26 03:17:55;;;;;;;33.88;16.52;;;;;;;0.15;71.83;98378.91;5025088;28;20104;-66
2022/03/26 03:20:23;;;;;;;33.78;15.68;;;;;;;0.23;71.75;98378.09;5023724;28;20053;-66
2022/03/26 03:22:49;;;;;;;37.15;17.48;;;;;;;0.16;71.99;98377.91;5024612;28;20045;-66
2022/03/26 03:25:16;;;;;;;36.13;17.25;;;;;;;0.18;72.17;98380.41;5025587;28;20049;-65
2022/03/26 03:27:43;;;;;;;35.13;16.20;;;;;;;0.22;71.94;98374.59;5024787;28;20037;-66
2022/03/26 03:30:10;;;;;;;38.53;17.23;;;;;;;0.35;71.09;98375.97;5023487;28;20042;-66
2022/03/26 03:32:37;;;;;;;32.65;16.75;;;;;;;0.36;71.93;98383.81;5024273;28;20052;-66
2022/03/26 03:35:05;;;;;;;30.98;16.48;;;;;;;0.31;71.62;98378.13;5024438;28;20104;-66
2022/03/26 03:37:39;;;;;;;35.70;17.55;;;;;;;0.28;71.28;98375.78;5023930;28;20041;-67
2022/03/26 03:40:06;;;;;;;37.65;16.30;;;;;;;0.19;72.01;98369.56;5024341;28;20052;-66
2022/03/26 03:42:34;;;;;;;35.88;16.98;;;;;;;0.22;71.78;98371.13;5024593;28;20045;-67
2022/03/26 03:45:02;;;;;;;36.08;17.80;;;;;;;0.06;72.45;98382.50;5025075;28;20050;-65
2022/03/26 03:47:28;;;;;;;36.13;19.60;;;;;;;-0.13;73.28;98376.44;5023941;28;20041;-67
2022/03/26 03:49:55;;;;;;;34.05;16.38;;;;;;;-0.33;73.57;98373.97;5024792;28;20040;-65
2022/03/26 03:52:21;;;;;;;34.55;16.90;;;;;;;-0.45;74.32;98377.88;5026920;28;20087;-67
2022/03/26 03:54:48;;;;;;;36.92;19.40;;;;;;;-0.60;74.58;98382.94;5024639;28;20497;-66
2022/03/26 03:57:15;;;;;;;34.75;16.27;;;;;;;-0.61;75.22;98381.28;5024426;28;20037;-65
2022/03/26 03:59:41;;;;;;;37.40;16.95;;;;;;;-0.50;74.79;98383.69;5023473;28;20052;-66
2022/03/26 04:02:11;;;;;;;35.95;17.83;;;;;;;-0.40;74.34;98379.09;5024002;28;20045;-66
2022/03/26 04:04:40;;;;;;;35.33;16.98;;;;;;;-0.46;74.58;98370.91;5017951;28;20069;-66
2022/03/26 04:07:07;;;;;;;38.88;16.27;;;;;;;-0.44;74.22;98372.41;5017732;28;20532;-67
2022/03/26 04:09:35;;;;;;;33.03;16.80;;;;;;;-0.34;74.19;98358.19;5024672;28;20487;-67
2022/03/26 04:12:02;;;;;;;39.55;17.92;;;;;;;-0.23;73.97;98365.91;5024581;28;20049;-64
2022/03/26 04:14:30;;;;;;;30.83;16.67;;;;;;;-0.10;73.01;98362.81;5028891;28;20049;-65
2022/03/26 04:16:56;;;;;;;35.45;15.82;;;;;;;-0.07;72.93;98361.66;5023905;28;20045;-66
2022/03/26 04:19:23;;;;;;;35.33;15.85;;;;;;;-0.08;72.85;98368.00;5022391;28;20103;-67
2022/03/26 04:21:50;;;;;;;30.38;14.40;;;;;;;0.01;73.01;98367.03;5026264;28;20468;-65
2022/03/26 04:24:16;;;;;;;34.38;16.17;;;;;;;0.01;72.67;98369.69;5025432;28;20662;-66
2022/03/26 04:26:46;;;;;;;31.00;15.98;;;;;;;-0.05;72.56;98371.16;5024203;28;20038;-65
2022/03/26 04:29:12;;;;;;;33.70;17.20;;;;;;;-0.41;73.64;98372.13;5024045;28;20038;-67
2022/03/26 04:31:39;;;;;;;30.17;15.13;;;;;;;-0.49;73.96;98363.22;5024490;28;20160;-67
2022/03/26 04:34:05;;;;;;;32.70;16.73;;;;;;;-0.53;74.69;98373.34;5024540;28;20042;-66
2022/03/26 04:36:32;;;;;;;33.47;16.58;;;;;;;-0.51;74.30;98373.22;5024067;28;20520;-65
2022/03/26 04:38:59;;;;;;;31.85;16.33;;;;;;;-0.50;74.57;98367.72;5021831;28;20053;-67
2022/03/26 04:41:28;;;;;;;35.60;17.65;;;;;;;-0.43;74.05;98370.59;5024366;28;20038;-65
2022/03/26 04:43:55;;;;;;;35.65;17.35;;;;;;;-0.33;73.86;98370.50;5024851;28;20100;-65
2022/03/26 04:46:22;;;;;;;32.55;17.13;;;;;;;-0.16;73.45;98372.25;5023794;28;20053;-66
2022/03/26 04:48:48;;;;;;;41.83;16.45;;;;;;;-0.06;72.90;98371.31;5025917;28;20041;-65
2022/03/26 04:51:15;;;;;;;38.45;17.90;;;;;;;-0.12;72.85;98371.97;5027973;28;20602;-66
2022/03/26 04:53:41;;;;;;;35.92;17.70;;;;;;;-0.15;73.51;98375.75;5033327;28;20052;-65
2022/03/26 04:56:08;;;;;;;31.50;16.75;;;;;;;-0.07;72.96;98375.78;5028152;28;20041;-65
2022/03/26 04:58:34;;;;;;;33.05;16.48;;;;;;;0.03;72.16;98391.66;5026337;28;20512;-66
2022/03/26 05:01:01;;;;;;;34.50;17.20;;;;;;;0.07;72.25;98382.34;5027205;28;20053;-65
2022/03/26 05:03:28;;;;;;;36.20;17.42;;;;;;;-0.11;72.89;98385.09;5027641;28;20112;-67
2022/03/26 05:05:55;;;;;;;37.97;17.30;;;;;;;-0.45;73.82;98391.19;5027916;28;20124;-65
2022/03/26 05:08:21;;;;;;;33.30;16.35;;;;;;;-0.72;74.75;98391.19;5027603;28;20042;-67
2022/03/26 05:10:48;;;;;;;34.58;17.08;;;;;;;-0.86;74.95;98394.38;5025160;28;20060;-67
2022/03/26 05:13:15;;;;;;;37.97;15.45;;;;;;;-0.85;74.92;98390.75;5025224;28;20041;-66
2022/03/26 05:15:42;;;;;;;36.97;17.92;;;;;;;-0.93;75.64;98389.69;5031642;28;20040;-65
2022/03/26 05:18:08;;;;;;;35.75;17.05;;;;;;;-0.85;75.72;98393.41;5024427;28;20471;-66
2022/03/26 05:20:35;;;;;;;36.58;16.85;;;;;;;-0.83;74.97;98394.06;5023512;28;20042;-66
2022/03/26 05:23:02;;;;;;;33.38;15.38;;;;;;;-0.81;74.79;98398.25;5024266;28;20849;-66
2022/03/26 05:25:29;;;;;;;38.60;18.23;;;;;;;-0.70;74.99;98401.69;5024695;28;20515;-66
2022/03/26 05:27:56;;;;;;;34.10;16.85;;;;;;;-0.62;74.83;98404.41;5025045;28;20509;-65
2022/03/26 05:30:24;;;;;;;33.45;15.75;;;;;;;-0.69;74.87;98406.84;5024671;28;20504;-66
2022/03/26 05:32:51;;;;;;;32.30;15.75;;;;;;;-0.67;74.83;98396.88;5022461;28;20560;-66
2022/03/26 05:35:18;;;;;;;42.78;18.02;;;;;;;-0.59;74.80;98409.41;5025543;28;20045;-65
2022/03/26 05:37:50;;;;;;;32.25;17.02;;;;;;;-0.55;74.54;98415.25;5023401;28;20823;-65
2022/03/26 05:40:18;;;;;;;35.90;17.20;;;;;;;-0.66;74.71;98422.47;5024162;28;20060;-67
2022/03/26 05:42:46;;;;;;;30.17;15.10;;;;;;;-0.61;75.35;98421.19;5024466;28;20096;-65
2022/03/26 05:45:15;;;;;;;34.05;15.25;;;;;;;-0.57;75.20;98419.88;5024641;28;20045;-65
2022/03/26 05:47:42;;;;;;;32.75;15.18;;;;;;;-0.50;74.46;98425.41;5023926;28;20065;-65
2022/03/26 05:50:10;;;;;;;33.38;15.45;;;;;;;-0.53;74.09;98419.44;5024535;28;20045;-66
2022/03/26 05:52:37;;;;;;;42.88;16.38;;;;;;;-0.59;74.49;98429.84;5029696;28;20041;-65
2022/03/26 05:55:05;;;;;;;34.13;16.23;;;;;;;-0.53;74.41;98437.22;5024875;28;20068;-66
2022/03/26 05:57:31;;;;;;;29.77;15.82;;;;;;;-0.49;74.53;98432.41;5025961;28;20049;-66
2022/03/26 05:59:58;;;;;;;33.83;15.27;;;;;;;-0.33;73.82;98431.72;5026318;28;20056;-65
2022/03/26 06:02:24;;;;;;;28.73;15.23;;;;;;;-0.16;73.38;98422.84;5022750;28;20057;-66
2022/03/26 06:04:51;;;;;;;32.83;15.32;;;;;;;-0.11;72.89;98427.69;5024959;28;20038;-67
2022/03/26 06:07:17;;;;;;;29.98;15.63;;;;;;;-0.06;73.28;98437.88;5023871;28;20148;-67
2022/03/26 06:09:44;;;;;;;32.83;16.55;;;;;;;-0.01;73.17;98440.91;5023436;28;20076;-65
2022/03/26 06:12:11;;;;;;;35.67;17.02;;;;;;;0.08;72.92;98441.78;5025007;28;20057;-66
2022/03/26 06:14:37;;;;;;;31.20;15.48;;;;;;;0.17;72.69;98435.50;5025752;28;20041;-65
2022/03/26 06:17:04;;;;;;;30.40;15.30;;;;;;;0.21;72.93;98449.34;5032340;28;20452;-65
2022/03/26 06:19:31;;;;;;;29.65;15.15;;;;;;;0.27;73.11;98453.19;5023484;28;20072;-65
2022/03/26 06:21:58;;;;;;;35.45;17.25;;;;;;;0.33;72.95;98449.91;5019913;28;20052;-65
2022/03/26 06:24:25;;;;;;;34.22;17.42;;;;;;;0.36;72.56;98458.41;5019494;28;20044;-64
2022/03/26 06:26:51;;;;;;;37.88;18.05;;;;;;;0.36;72.57;98465.56;5022587;28;20627;-64
2022/03/26 06:29:18;;;;;;;40.63;19.02;;;;;;;0.47;72.67;98459.13;5021228;28;20049;-65
2022/03/26 06:31:45;;;;;;;39.95;18.38;;;;;;;0.54;72.45;98462.81;5022183;28;20045;-64
2022/03/26 06:34:11;;;;;;;36.90;20.25;;;;;;;0.64;72.34;98471.53;5033095;28;20033;-65
2022/03/26 06:36:39;;;;;;;30.73;15.48;;;;;;;0.76;71.96;98472.06;5026428;28;20084;-64
2022/03/26 06:39:07;;;;;;;38.33;16.67;;;;;;;0.96;71.64;98476.31;5023954;28;20073;-64
2022/03/26 06:41:38;;;;;;;36.17;17.25;;;;;;;1.17;70.83;98479.34;5025599;28;20536;-64
2022/03/26 06:44:07;;;;;;;37.92;16.42;;;;;;;1.30;70.87;98484.19;5026990;28;20048;-64
2022/03/26 06:46:35;;;;;;;39.53;17.05;;;;;;;1.34;71.92;98482.03;5024818;28;20041;-64
2022/03/26 06:49:02;;;;;;;39.00;16.85;;;;;;;1.50;71.74;98477.69;5026088;28;20050;-64
2022/03/26 06:51:29;;;;;;;35.65;17.73;;;;;;;1.71;71.36;98485.22;5027962;28;20063;-65
2022/03/26 06:53:55;;;;;;;38.50;17.80;;;;;;;1.95;69.60;98483.53;5028276;28;20489;-64
2022/03/26 06:56:22;;;;;;;32.63;16.67;;;;;;;2.14;69.93;98482.34;5034434;28;20095;-64
2022/03/26 06:58:49;;;;;;;30.95;16.48;;;;;;;2.26;69.84;98485.50;5025249;28;20052;-64
2022/03/26 07:01:16;;;;;;;33.08;16.05;;;;;;;2.45;69.33;98491.47;5024984;28;20049;-64
2022/03/26 07:03:43;;;;;;;29.83;15.68;;;;;;;2.58;68.62;98489.06;5026736;28;20117;-65
2022/03/26 07:06:09;;;;;;;35.17;16.52;;;;;;;2.68;69.72;98494.22;5025324;28;20052;-64
2022/03/26 07:08:36;;;;;;;28.17;14.57;;;;;;;2.91;67.13;98493.44;5026309;28;20049;-64
2022/03/26 07:11:03;;;;;;;28.25;13.55;;;;;;;3.12;66.41;98500.03;5025491;28;20050;-64
2022/03/26 07:13:29;;;;;;;35.63;16.05;;;;;;;3.42;66.24;98494.84;5024316;28;20056;-65
2022/03/26 07:15:56;;;;;;;31.45;14.70;;;;;;;3.50;65.36;98500.13;5023483;28;20468;-65
2022/03/26 07:18:23;;;;;;;30.25;14.65;;;;;;;3.66;63.92;98489.47;5025275;28;20504;-65
2022/03/26 07:20:51;;;;;;;27.02;14.35;;;;;;;3.83;63.64;98495.56;5025140;28;20065;-65
2022/03/26 07:23:18;;;;;;;32.70;15.02;;;;;;;3.98;63.20;98493.72;5024336;28;20037;-64
2022/03/26 07:25:44;;;;;;;28.33;15.20;;;;;;;4.10;61.50;98496.81;5025203;28;20702;-65
2022/03/26 07:28:11;;;;;;;32.80;15.40;;;;;;;4.34;60.62;98492.22;5025684;28;20041;-65
2022/03/26 07:30:37;;;;;;;30.17;13.65;;;;;;;4.58;60.11;98492.13;5025264;28;20497;-65
2022/03/26 07:33:04;;;;;;;28.50;13.73;;;;;;;4.73;58.96;98489.44;5025478;28;20045;-65
2022/03/26 07:35:31;;;;;;;28.92;14.07;;;;;;;4.95;58.81;98493.03;5025467;28;20501;-65
2022/03/26 07:37:58;;;;;;;30.13;16.00;;;;;;;5.15;57.86;98500.47;5025371;28;20052;-65
2022/03/26 07:40:24;;;;;;;29.23;14.35;;;;;;;5.29;57.53;98502.31;5023858;28;20049;-65
2022/03/26 07:42:51;;;;;;;29.35;14.55;;;;;;;5.49;55.81;98496.28;5025277;28;20033;-65
2022/03/26 07:45:18;;;;;;;29.27;13.70;;;;;;;5.55;55.39;98495.53;5024086;28;20504;-65
2022/03/26 07:47:44;;;;;;;24.42;13.30;;;;;;;5.59;55.28;98496.81;5024891;28;20052;-65
2022/03/26 07:50:11;;;;;;;30.55;14.82;;;;;;;5.73;54.60;98496.94;5024353;28;20049;-65
2022/03/26 07:52:38;;;;;;;25.77;13.95;;;;;;;5.86;54.40;98498.91;5023741;28;20029;-65
2022/03/26 07:55:05;;;;;;;29.50;13.18;;;;;;;5.95;54.40;98508.53;5024801;28;20041;-65
2022/03/26 07:57:32;;;;;;;31.17;12.18;;;;;;;5.97;53.83;98500.28;5024663;28;20072;-65
2022/03/26 07:59:59;;;;;;;26.40;13.13;;;;;;;6.02;54.23;98500.50;5025151;28;20099;-65
2022/03/26 08:02:26;;;;;;;25.00;13.98;;;;;;;6.14;54.01;98506.22;5024927;28;20649;-65
2022/03/26 08:04:52;;;;;;;27.27;13.93;;;;;;;6.13;54.48;98501.88;5025585;28;20042;-65
2022/03/26 08:07:21;;;;;;;21.95;12.18;;;;;;;6.32;53.64;98508.41;5021882;28;20045;-65
2022/03/26 08:09:48;;;;;;;31.05;14.68;;;;;;;6.60;53.73;98514.81;5024355;28;20051;-64
2022/03/26 08:12:15;;;;;;;27.80;14.13;;;;;;;6.90;51.63;98501.91;5027906;28;20049;-64
2022/03/26 08:14:41;;;;;;;24.58;13.38;;;;;;;7.12;51.57;98506.34;5034449;28;20064;-64
2022/03/26 08:17:08;;;;;;;29.20;14.57;;;;;;;7.16;50.99;98513.81;5026375;28;20500;-65
2022/03/26 08:19:34;;;;;;;29.15;13.60;;;;;;;7.24;50.88;98509.28;5024194;28;20049;-65
2022/03/26 08:22:02;;;;;;;27.48;12.63;;;;;;;7.32;50.55;98510.97;5024703;28;20048;-64
2022/03/26 08:24:29;;;;;;;29.77;14.85;;;;;;;7.36;50.44;98515.75;5026043;28;20030;-64
2022/03/26 08:26:56;;;;;;;30.65;15.27;;;;;;;7.46;50.13;98515.38;5025130;28;20098;-64
2022/03/26 08:29:23;;;;;;;32.15;14.80;;;;;;;7.55;50.59;98522.25;5027659;28;20056;-64
2022/03/26 08:31:50;;;;;;;29.25;14.85;;;;;;;7.67;50.33;98517.06;5028568;28;20037;-65
2022/03/26 08:34:18;;;;;;;30.10;14.40;;;;;;;7.86;49.77;98528.09;5033561;28;20041;-65
2022/03/26 08:36:44;;;;;;;32.95;14.15;;;;;;;7.94;49.43;98524.38;5027293;28;20049;-65
2022/03/26 08:39:11;;;;;;;31.17;15.23;;;;;;;8.01;49.45;98529.78;5045035;28;20508;-66
2022/03/26 08:41:37;;;;;;;26.05;14.57;;;;;;;8.12;49.18;98528.31;5028013;28;20571;-66
2022/03/26 08:44:04;;;;;;;31.30;14.45;;;;;;;8.15;48.66;98531.41;5028324;28;20041;-66
2022/03/26 08:46:31;;;;;;;30.02;14.45;;;;;;;8.20;48.34;98526.25;5027311;28;20046;-65
2022/03/26 08:48:58;;;;;;;29.67;14.48;;;;;;;8.32;48.39;98531.00;5029220;28;20125;-66
2022/03/26 08:51:24;;;;;;;28.75;15.57;;;;;;;8.45;47.15;98525.59;5032012;28;20053;-66
2022/03/26 08:53:51;;;;;;;32.55;15.75;;;;;;;8.58;46.76;98532.03;5032977;28;20057;-66
2022/03/26 08:56:17;;;;;;;33.53;16.58;;;;;;;8.67;46.88;98529.97;5028585;28;20038;-65
2022/03/26 08:58:45;;;;;;;35.50;16.30;;;;;;;8.80;46.37;98534.50;5023906;28;20099;-66
2022/03/26 09:01:12;;;;;;;29.70;14.80;;;;;;;8.88;45.62;98533.44;5036975;28;20455;-66
2022/03/26 09:03:40;;;;;;;32.50;17.20;;;;;;;8.94;46.01;98536.13;5012382;28;20044;-65
2022/03/26 09:06:08;;;;;;;29.63;15.23;;;;;;;9.06;45.37;98524.66;5023220;28;20045;-66
2022/03/26 09:08:35;;;;;;;31.40;16.00;;;;;;;9.17;45.00;98531.25;5036459;28;20095;-65
2022/03/26 09:11:04;;;;;;;37.30;17.40;;;;;;;9.29;45.07;98526.03;5032597;28;20049;-66
2022/03/26 09:13:31;;;;;;;32.33;17.13;;;;;;;9.33;45.08;98535.38;5020327;28;20123;-65
2022/03/26 09:15:58;;;;;;;33.55;17.48;;;;;;;9.40;44.86;98532.63;5020700;28;20655;-65
2022/03/26 09:18:26;;;;;;;34.83;17.85;;;;;;;9.42;44.90;98536.78;5024957;28;20048;-65
2022/03/26 09:20:53;;;;;;;32.83;16.75;;;;;;;9.51;45.15;98529.22;5024561;28;20041;-65
2022/03/26 09:23:21;;;;;;;32.55;16.63;;;;;;;9.63;45.33;98524.78;5016069;28;20052;-65
2022/03/26 09:25:47;;;;;;;34.78;17.33;;;;;;;9.75;45.08;98524.09;5023411;28;20049;-65
2022/03/26 09:28:14;;;;;;;33.00;16.52;;;;;;;9.85;45.37;98520.91;5025031;28;20041;-65
2022/03/26 09:30:40;;;;;;;34.00;17.63;;;;;;;9.95;44.66;98518.53;5025573;28;20042;-64
2022/03/26 09:33:07;;;;;;;32.03;17.63;;;;;;;9.98;44.85;98518.13;5023621;28;20045;-64
2022/03/26 09:35:34;;;;;;;31.45;16.85;;;;;;;10.17;47.37;98520.88;5024085;28;20045;-65
2022/03/26 09:38:00;;;;;;;35.92;17.23;;;;;;;10.27;44.47;98515.81;5032276;28;20050;-63
2022/03/26 09:40:27;;;;;;;37.25;18.40;;;;;;;10.40;44.54;98517.53;5024895;28;20543;-66
2022/03/26 09:42:54;;;;;;;36.08;18.05;;;;;;;10.47;42.95;98519.41;5022822;28;20509;-63
2022/03/26 09:45:21;;;;;;;32.80;16.45;;;;;;;10.53;44.65;98516.63;5024106;28;20052;-63
2022/03/26 09:47:48;;;;;;;36.38;19.13;;;;;;;10.71;43.82;98519.59;5023462;28;20060;-63
2022/03/26 09:50:15;;;;;;;38.30;18.08;;;;;;;10.82;43.17;98518.00;5028346;28;20057;-63
2022/03/26 09:52:42;;;;;;;32.35;17.23;;;;;;;11.04;42.52;98518.38;5030600;28;20045;-63
2022/03/26 09:55:11;;;;;;;34.50;17.40;;;;;;;11.11;41.96;98512.88;5024315;28;20696;-63
2022/03/26 09:57:39;;;;;;;33.28;17.50;;;;;;;11.23;42.24;98505.66;5005638;28;20053;-64
2022/03/26 10:00:08;;;;;;;36.83;19.55;;;;;;;11.36;42.12;98510.09;5008323;28;20050;-64
2022/03/26 10:02:37;;;;;;;;;;;;;;;11.44;41.75;98515.19;5026561;28;20506;-64
2022/03/26 10:05:07;;;;;;;39.03;19.10;;;;;;;11.46;41.51;98512.22;5027889;28;19932;-64
2022/03/26 10:07:34;;;;;;;32.25;16.83;;;;;;;11.55;41.85;98510.03;5038617;28;20539;-64
2022/03/26 10:10:03;;;;;;;35.88;19.40;;;;;;;11.50;41.31;98510.72;5026595;28;20041;-64
2022/03/26 10:12:30;;;;;;;38.58;19.50;;;;;;;11.61;41.52;98509.09;5027203;28;20595;-63
2022/03/26 10:15:04;;;;;;;45.63;18.48;;;;;;;11.75;40.91;98514.34;5027266;28;20037;-65
2022/03/26 10:17:35;;;;;;;35.25;18.25;;;;;;;11.89;40.71;98510.38;5026191;28;20500;-64
2022/03/26 10:20:13;;;;;;;;;;;;;;;11.91;40.71;98507.44;5034409;28;20049;-64
2022/03/26 10:22:48;;;;;;;33.50;16.63;;;;;;;12.12;39.46;98502.53;5015972;28;19925;-64
2022/03/26 10:25:18;;;;;;;36.28;17.38;;;;;;;12.18;39.40;98499.72;5019822;28;20049;-63
2022/03/26 10:27:56;;;;;;;36.40;18.48;;;;;;;12.30;39.07;98502.44;5020033;28;20041;-64
2022/03/26 10:33:23;;;;;;;35.50;19.33;;;;;;;12.32;38.13;98496.75;5020611;28;20132;-65
2022/03/26 10:36:03;;;;;;;36.58;18.67;;;;;;;12.35;37.94;98499.81;5022831;28;20415;-64
2022/03/26 10:38:38;;;;;;;41.72;20.88;;;;;;;12.42;37.77;98490.75;5022856;28;20049;-64
2022/03/26 10:41:07;;;;;;;38.33;19.60;;;;;;;12.63;38.15;98483.06;5019463;28;20053;-67
2022/03/26 10:43:39;;;;;;;38.28;19.75;;;;;;;12.73;37.32;98494.97;5027315;28;20056;-63
2022/03/26 10:46:06;;;;;;;39.80;19.65;;;;;;;12.66;37.16;98490.72;5027270;28;20033;-65
2022/03/26 10:48:34;;;;;;;40.47;21.48;;;;;;;12.78;37.79;98494.25;5032954;28;20053;-63
2022/03/26 10:51:09;;;;;;;38.38;20.33;;;;;;;12.94;37.58;98494.59;5028626;28;20148;-64
2022/03/26 10:53:38;;;;;;;40.33;20.52;;;;;;;12.96;37.18;98487.84;5020073;28;20053;-66
2022/03/26 10:56:07;;;;;;;39.58;20.60;;;;;;;13.02;37.13;98486.06;5022371;28;20509;-64
2022/03/26 10:58:35;;;;;;;37.15;18.48;;;;;;;13.11;36.41;98479.16;5024545;28;20068;-66
2022/03/26 11:01:03;;;;;;;33.97;17.63;;;;;;;13.21;36.15;98477.72;5025673;28;20049;-64
2022/03/26 11:03:31;;;;;;;35.60;19.55;;;;;;;13.44;35.45;98486.84;5020873;28;20073;-65
2022/03/26 11:05:58;;;;;;;40.38;19.88;;;;;;;13.37;35.42;98481.56;5021218;28;20099;-65
2022/03/26 11:08:30;;;;;;;33.10;17.85;;;;;;;13.60;35.50;98482.56;5021622;28;20484;-65
2022/03/26 11:10:59;;;;;;;34.53;18.80;;;;;;;13.68;35.64;98486.78;5021233;28;20064;-64
2022/03/26 11:13:28;;;;;;;32.33;19.27;;;;;;;13.63;35.64;98480.16;5021980;28;20056;-64
2022/03/26 11:16:09;;;;;;;38.45;19.52;;;;;;;13.69;35.52;98480.25;5023132;28;20521;-65
2022/03/26 11:18:36;;;;;;;38.10;18.83;;;;;;;13.77;35.88;98475.25;5022162;28;20072;-65
2022/03/26 11:21:24;;;;;;;36.83;18.55;;;;;;;13.77;35.62;98474.41;5021591;28;20106;-65
2022/03/26 11:24:26;;;;;;;36.05;18.67;;;;;;;13.79;35.28;98472.28;5014697;28;20125;-64
2022/03/26 11:27:22;;;;;;;35.50;19.23;;;;;;;13.82;35.23;98471.78;5022333;28;20061;-65